Time,TemperatureF,DewpointF,PressureIn,WindDirection,WindDirectionDegrees,WindSpeedMPH,WindSpeedGustMPH,Humidity,HourlyPrecipIn,Conditions,Clouds,dailyrainin,SoftwareType,DateUTC
2013-08-24 00:12:00,52.0,43.0,-100.00,West,267,0.0,1.0,72,-99.99,,,-99.99,,2013-08-24 06:12:00,
2013-08-24 00:21:00,51.0,42.0,-100.00,WNW,297,3.0,3.0,71,-99.99,,,-99.99,,2013-08-24 06:21:00,
2013-08-24 00:42:00,50.0,43.0,-100.00,WNW,294,2.0,2.0,74,-99.99,,,-99.99,,2013-08-24 06:42:00,
2013-08-24 01:11:00,50.0,45.0,-100.00,West,281,3.0,6.0,83,-99.99,,,-99.99,,2013-08-24 07:11:00,
2013-08-24 01:22:00,50.0,46.0,-100.00,SW,231,6.0,8.0,85,-99.99,,,-99.99,,2013-08-24 07:22:00,
2013-08-24 01:42:00,50.0,46.0,-100.00,SW,228,7.0,9.0,86,-99.99,,,-99.99,,2013-08-24 07:42:00,
2013-08-24 02:12:00,50.0,46.0,-100.00,West,265,5.0,7.0,88,-99.99,,,-99.99,,2013-08-24 08:12:00,
2013-08-24 02:22:00,51.0,47.0,-100.00,WSW,256,5.0,8.0,87,-99.99,,,-99.99,,2013-08-24 08:22:00,
2013-08-24 02:42:00,49.0,46.0,-100.00,East,100,2.0,4.0,88,-99.99,,,-99.99,,2013-08-24 08:42:00,
2013-08-24 03:11:00,50.0,45.0,-100.00,SW,236,3.0,4.0,81,-99.99,,,-99.99,,2013-08-24 09:11:00,
2013-08-24 03:22:00,49.0,45.0,-100.00,SSW,195,0.0,1.0,85,-99.99,,,-99.99,,2013-08-24 09:22:00,
2013-08-24 04:13:00,50.0,42.0,-100.00,ESE,107,3.0,3.0,73,-99.99,,,-99.99,,2013-08-24 10:13:00,
2013-08-24 04:42:00,49.0,42.0,-100.00,ESE,120,3.0,4.0,78,-99.99,,,-99.99,,2013-08-24 10:42:00,
2013-08-24 05:11:00,46.0,41.0,-100.00,East,81,4.0,5.0,83,-99.99,,,-99.99,,2013-08-24 11:11:00,
2013-08-24 05:42:00,49.0,41.0,-100.00,East,90,4.0,5.0,74,-99.99,,,-99.99,,2013-08-24 11:42:00,
2013-08-24 06:11:00,47.0,40.0,-100.00,ENE,64,7.0,8.0,76,-99.99,,,-99.99,,2013-08-24 12:11:00,
2013-08-24 06:21:00,47.0,41.0,-100.00,East,89,5.0,6.0,78,-99.99,,,-99.99,,2013-08-24 12:21:00,
2013-08-24 06:41:00,47.0,41.0,-100.00,ENE,73,8.0,8.0,81,-99.99,,,-99.99,,2013-08-24 12:41:00,
2013-08-24 06:52:00,47.0,41.0,-100.00,ENE,72,7.0,7.0,79,-99.99,,,-99.99,,2013-08-24 12:52:00,
2013-08-24 07:11:00,46.0,41.0,-100.00,ENE,66,5.0,6.0,82,-99.99,,,-99.99,,2013-08-24 13:11:00,
2013-08-24 07:22:00,47.0,41.0,-100.00,ENE,62,6.0,9.0,79,-99.99,,,-99.99,,2013-08-24 13:22:00,
2013-08-24 07:42:00,47.0,41.0,-100.00,ENE,75,6.0,6.0,80,-99.99,,,-99.99,,2013-08-24 13:42:00,
2013-08-24 08:42:00,54.0,44.0,-100.00,East,89,6.0,6.0,68,-99.99,,,-99.99,,2013-08-24 14:42:00,
2013-08-24 09:45:00,61.0,42.0,-100.00,NNE,29,2.0,6.0,48,-99.99,,,-99.99,,2013-08-24 15:45:00,
2013-08-24 10:13:00,62.0,43.0,-100.00,NW,311,3.0,4.0,50,-99.99,,,-99.99,,2013-08-24 16:13:00,
2013-08-24 10:23:00,63.0,44.0,-100.00,South,171,4.0,6.0,50,-99.99,,,-99.99,,2013-08-24 16:23:00,
2013-08-24 10:42:00,64.0,45.0,-100.00,WSW,239,5.0,8.0,50,-99.99,,,-99.99,,2013-08-24 16:42:00,
2013-08-24 11:23:00,65.0,46.0,-100.00,SW,236,11.0,16.0,51,-99.99,,,-99.99,,2013-08-24 17:23:00,
2013-08-24 11:42:00,64.0,45.0,-100.00,SW,217,8.0,13.0,50,-99.99,,,-99.99,,2013-08-24 17:42:00,
2013-08-24 12:13:00,64.0,47.0,-100.00,WSW,242,10.0,16.0,53,-99.99,,,-99.99,,2013-08-24 18:13:00,
2013-08-24 12:22:00,66.0,47.0,-100.00,SSW,209,12.0,14.0,50,-99.99,,,-99.99,,2013-08-24 18:22:00,
2013-08-24 12:42:00,65.0,46.0,-100.00,SSW,201,7.0,12.0,49,-99.99,,,-99.99,,2013-08-24 18:42:00,
2013-08-24 13:12:00,64.0,46.0,-100.00,WSW,239,9.0,13.0,53,-99.99,,,-99.99,,2013-08-24 19:12:00,
2013-08-24 13:21:00,64.0,44.0,-100.00,SSW,198,5.0,11.0,47,-99.99,,,-99.99,,2013-08-24 19:21:00,
2013-08-24 13:42:00,63.0,41.0,-100.00,East,97,10.0,11.0,44,-99.99,,,-99.99,,2013-08-24 19:42:00,
2013-08-24 14:42:00,62.0,46.0,-100.00,ESE,123,12.0,16.0,54,-99.99,,,-99.99,,2013-08-24 20:42:00,
2013-08-24 15:22:00,62.0,41.0,-100.00,SE,140,6.0,8.0,45,-99.99,,,-99.99,,2013-08-24 21:22:00,
2013-08-24 15:43:00,60.0,44.0,-100.00,West,259,10.0,15.0,55,-99.99,,,-99.99,,2013-08-24 21:43:00,
2013-08-24 16:23:00,61.0,45.0,-100.00,West,259,8.0,12.0,56,-99.99,,,-99.99,,2013-08-24 22:23:00,
2013-08-24 16:42:00,63.0,43.0,-100.00,West,263,8.0,12.0,46,-99.99,,,-99.99,,2013-08-24 22:42:00,
2013-08-24 17:12:00,66.0,41.0,-100.00,WSW,239,7.0,14.0,39,-99.99,,,-99.99,,2013-08-24 23:12:00,
2013-08-24 17:42:00,64.0,41.0,-100.00,West,265,7.0,11.0,42,-99.99,,,-99.99,,2013-08-24 23:42:00,
2013-08-24 18:11:00,63.0,45.0,-100.00,West,267,4.0,5.0,53,-99.99,,,-99.99,,2013-08-25 00:11:00,
2013-08-24 18:22:00,62.0,48.0,-100.00,WNW,297,3.0,5.0,60,-99.99,,,-99.99,,2013-08-25 00:22:00,
2013-08-24 19:42:00,52.0,48.0,-100.00,NNW,340,10.0,12.0,87,-99.99,,,-99.99,,2013-08-25 01:42:00,
2013-08-24 20:42:00,52.0,45.0,-100.00,North,10,10.0,13.0,78,-99.99,,,-99.99,,2013-08-25 02:42:00,
2013-08-24 21:23:00,52.0,48.0,-100.00,East,97,9.0,10.0,86,-99.99,,,-99.99,,2013-08-25 03:23:00,
2013-08-24 21:44:00,51.0,48.0,-100.00,East,101,5.0,6.0,91,-99.99,,,-99.99,,2013-08-25 03:44:00,
2013-08-24 22:02:00,-999.0,-99.9,-100.00,ESE,121,6.0,8.0,-999,-99.99,,,-99.99,,2013-08-25 04:02:00,
2013-08-24 22:14:00,50.0,49.0,-100.00,ESE,121,6.0,8.0,93,-99.99,,,-99.99,,2013-08-25 04:14:00,
2013-08-24 22:43:00,51.0,48.0,-100.00,SE,131,5.0,6.0,89,-99.99,,,-99.99,,2013-08-25 04:43:00,
2013-08-24 23:12:00,51.0,48.0,-100.00,East,96,5.0,5.0,91,-99.99,,,-99.99,,2013-08-25 05:12:00,
2013-08-24 23:42:00,50.0,49.0,-100.00,East,90,11.0,13.0,95,-99.99,,,-99.99,,2013-08-25 05:42:00,